sensor_id;sensor_type;location;lat;lon;timestamp;pressure;altitude;pressure_sealevel;temperature;humidity
61039;BME280;46919;45.816;3.104;2022-08-21T00:00:18;98032.38;;;19.42;76.51
61039;BME280;46919;45.816;3.104;2022-08-21T00:02:47;98027.19;;;19.41;76.62
61039;BME280;46919;45.816;3.104;2022-08-21T00:05:14;98029.94;;;19.35;76.86
61039;BME280;46919;45.816;3.104;2022-08-21T00:07:39;98026.94;;;19.37;77.36
61039;BME280;46919;45.816;3.104;2022-08-21T00:10:05;98025.56;;;19.34;77.21
61039;BME280;46919;45.816;3.104;2022-08-21T00:12:31;98027.75;;;19.32;76.98
61039;BME280;46919;45.816;3.104;2022-08-21T00:14:57;98025.56;;;19.29;76.71
61039;BME280;46919;45.816;3.104;2022-08-21T00:17:23;98029.97;;;19.30;76.96
61039;BME280;46919;45.816;3.104;2022-08-21T00:19:48;98031.06;;;19.29;77.35
61039;BME280;46919;45.816;3.104;2022-08-21T00:22:13;98025.31;;;19.26;77.00
61039;BME280;46919;45.816;3.104;2022-08-21T00:24:39;98022.03;;;19.29;78.59
61039;BME280;46919;45.816;3.104;2022-08-21T00:27:04;98015.44;;;19.35;79.24
61039;BME280;46919;45.816;3.104;2022-08-21T00:29:30;98019.25;;;19.39;79.51
61039;BME280;46919;45.816;3.104;2022-08-21T00:31:55;98015.16;;;19.31;79.18
61039;BME280;46919;45.816;3.104;2022-08-21T00:34:21;98007.50;;;19.33;79.80
61039;BME280;46919;45.816;3.104;2022-08-21T00:36:46;97998.72;;;19.31;80.24
61039;BME280;46919;45.816;3.104;2022-08-21T00:39:12;98002.53;;;19.35;80.46
61039;BME280;46919;45.816;3.104;2022-08-21T00:41:38;98006.13;;;19.21;80.25
61039;BME280;46919;45.816;3.104;2022-08-21T00:44:12;98003.72;;;19.04;80.63
61039;BME280;46919;45.816;3.104;2022-08-21T00:46:39;98004.00;;;18.92;81.13
61039;BME280;46919;45.816;3.104;2022-08-21T00:49:06;98004.53;;;18.83;82.24
61039;BME280;46919;45.816;3.104;2022-08-21T00:51:39;98000.16;;;18.77;82.70
61039;BME280;46919;45.816;3.104;2022-08-21T00:54:07;97994.72;;;18.67;82.94
61039;BME280;46919;45.816;3.104;2022-08-21T00:56:33;97992.81;;;18.57;82.98
61039;BME280;46919;45.816;3.104;2022-08-21T00:59:01;97986.25;;;18.43;82.61
61039;BME280;46919;45.816;3.104;2022-08-21T01:01:27;97975.84;;;18.24;83.11
61039;BME280;46919;45.816;3.104;2022-08-21T01:03:53;97981.28;;;18.09;83.89
61039;BME280;46919;45.816;3.104;2022-08-21T01:06:19;97980.16;;;17.95;84.35
61039;BME280;46919;45.816;3.104;2022-08-21T01:08:45;97983.16;;;17.88;83.81
61039;BME280;46919;45.816;3.104;2022-08-21T01:11:11;97991.28;;;17.72;84.83
61039;BME280;46919;45.816;3.104;2022-08-21T01:13:38;97982.28;;;17.67;85.24
61039;BME280;46919;45.816;3.104;2022-08-21T01:16:09;97975.38;;;17.54;85.68
61039;BME280;46919;45.816;3.104;2022-08-21T01:18:35;97977.28;;;17.43;85.70
61039;BME280;46919;45.816;3.104;2022-08-21T01:23:29;97969.25;;;17.21;86.74
61039;BME280;46919;45.816;3.104;2022-08-21T01:25:55;97976.03;;;17.13;86.87
61039;BME280;46919;45.816;3.104;2022-08-21T01:28:21;97973.81;;;17.05;87.02
61039;BME280;46919;45.816;3.104;2022-08-21T01:30:48;97975.41;;;16.96;87.40
61039;BME280;46919;45.816;3.104;2022-08-21T01:33:20;97972.59;;;16.86;87.68
61039;BME280;46919;45.816;3.104;2022-08-21T01:35:47;97963.78;;;16.73;88.12
61039;BME280;46919;45.816;3.104;2022-08-21T01:38:12;97962.88;;;16.62;88.87
61039;BME280;46919;45.816;3.104;2022-08-21T01:40:38;97966.13;;;16.59;89.12
61039;BME280;46919;45.816;3.104;2022-08-21T01:43:04;97962.25;;;16.55;90.13
61039;BME280;46919;45.816;3.104;2022-08-21T01:45:29;97965.88;;;16.61;89.92
61039;BME280;46919;45.816;3.104;2022-08-21T01:47:55;97960.72;;;16.70;90.19
61039;BME280;46919;45.816;3.104;2022-08-21T01:50:21;97969.50;;;16.72;89.67
61039;BME280;46919;45.816;3.104;2022-08-21T01:52:47;97969.16;;;16.68;89.21
61039;BME280;46919;45.816;3.104;2022-08-21T01:55:14;97969.16;;;16.63;89.27
61039;BME280;46919;45.816;3.104;2022-08-21T01:57:41;97974.59;;;16.63;89.54
61039;BME280;46919;45.816;3.104;2022-08-21T02:00:09;97967.53;;;16.67;90.18
61039;BME280;46919;45.816;3.104;2022-08-21T02:02:36;97969.03;;;16.85;91.04
61039;BME280;46919;45.816;3.104;2022-08-21T02:05:03;97964.88;;;16.77;90.84
61039;BME280;46919;45.816;3.104;2022-08-21T02:07:42;97963.81;;;16.83;91.45
61039;BME280;46919;45.816;3.104;2022-08-21T02:10:10;97958.88;;;16.75;91.04
61039;BME280;46919;45.816;3.104;2022-08-21T02:12:35;97955.00;;;16.71;91.32
61039;BME280;46919;45.816;3.104;2022-08-21T02:15:03;97958.31;;;16.73;91.16
61039;BME280;46919;45.816;3.104;2022-08-21T02:17:37;97965.88;;;16.61;91.44
61039;BME280;46919;45.816;3.104;2022-08-21T02:20:03;97959.25;;;16.52;92.29
61039;BME280;46919;45.816;3.104;2022-08-21T02:22:29;97960.03;;;16.47;92.41
61039;BME280;46919;45.816;3.104;2022-08-21T02:24:55;97949.94;;;16.47;92.59
61039;BME280;46919;45.816;3.104;2022-08-21T02:27:24;97949.91;;;16.42;92.74
61039;BME280;46919;45.816;3.104;2022-08-21T02:29:50;97945.47;;;16.36;92.93
61039;BME280;46919;45.816;3.104;2022-08-21T02:32:15;97947.63;;;16.29;93.20
61039;BME280;46919;45.816;3.104;2022-08-21T02:34:41;97946.41;;;16.15;93.89
61039;BME280;46919;45.816;3.104;2022-08-21T02:37:06;97946.34;;;16.09;94.54
61039;BME280;46919;45.816;3.104;2022-08-21T02:39:31;97946.34;;;16.09;94.97
61039;BME280;46919;45.816;3.104;2022-08-21T02:41:57;97949.56;;;16.01;95.27
61039;BME280;46919;45.816;3.104;2022-08-21T02:44:22;97951.94;;;15.92;95.63
61039;BME280;46919;45.816;3.104;2022-08-21T02:46:47;97952.72;;;15.88;95.81
61039;BME280;46919;45.816;3.104;2022-08-21T02:49:13;97961.91;;;15.82;95.40
61039;BME280;46919;45.816;3.104;2022-08-21T02:51:38;97969.25;;;15.81;96.10
61039;BME280;46919;45.816;3.104;2022-08-21T02:54:04;97963.03;;;15.86;95.42
61039;BME280;46919;45.816;3.104;2022-08-21T02:56:29;97962.03;;;15.70;95.75
61039;BME280;46919;45.816;3.104;2022-08-21T02:58:54;97958.75;;;15.68;95.99
61039;BME280;46919;45.816;3.104;2022-08-21T03:01:20;97959.03;;;15.71;96.43
61039;BME280;46919;45.816;3.104;2022-08-21T03:03:47;97958.03;;;15.78;96.17
61039;BME280;46919;45.816;3.104;2022-08-21T03:06:15;97953.00;;;15.91;95.44
61039;BME280;46919;45.816;3.104;2022-08-21T03:08:41;97956.06;;;16.00;96.53
61039;BME280;46919;45.816;3.104;2022-08-21T03:11:08;97955.47;;;15.93;96.41
61039;BME280;46919;45.816;3.104;2022-08-21T03:13:34;97958.53;;;15.74;97.25
61039;BME280;46919;45.816;3.104;2022-08-21T03:15:59;97962.75;;;15.60;97.88
61039;BME280;46919;45.816;3.104;2022-08-21T03:18:25;97964.22;;;15.46;98.52
61039;BME280;46919;45.816;3.104;2022-08-21T03:20:50;97958.47;;;15.42;98.77
61039;BME280;46919;45.816;3.104;2022-08-21T03:23:17;97949.41;;;15.36;98.63
61039;BME280;46919;45.816;3.104;2022-08-21T03:25:44;97955.84;;;15.30;98.56
61039;BME280;46919;45.816;3.104;2022-08-21T03:28:16;97956.59;;;15.26;98.86
61039;BME280;46919;45.816;3.104;2022-08-21T03:30:44;97951.38;;;15.19;99.17
61039;BME280;46919;45.816;3.104;2022-08-21T03:33:09;97946.13;;;15.12;99.39
61039;BME280;46919;45.816;3.104;2022-08-21T03:35:35;97940.91;;;15.11;99.22
61039;BME280;46919;45.816;3.104;2022-08-21T03:38:00;97931.59;;;15.07;99.23
61039;BME280;46919;45.816;3.104;2022-08-21T03:40:26;97929.97;;;15.06;99.38
61039;BME280;46919;45.816;3.104;2022-08-21T03:42:51;97925.53;;;14.99;99.86
61039;BME280;46919;45.816;3.104;2022-08-21T03:45:18;97931.47;;;14.96;100.00
61039;BME280;46919;45.816;3.104;2022-08-21T03:47:53;97936.94;;;14.96;100.00
61039;BME280;46919;45.816;3.104;2022-08-21T03:50:20;97930.34;;;14.92;100.00
61039;BME280;46919;45.816;3.104;2022-08-21T03:52:45;97934.66;;;14.88;100.00
61039;BME280;46919;45.816;3.104;2022-08-21T03:55:10;97931.88;;;14.83;100.00
61039;BME280;46919;45.816;3.104;2022-08-21T03:57:36;97945.97;;;14.80;100.00
61039;BME280;46919;45.816;3.104;2022-08-21T04:00:02;97939.13;;;14.77;100.00
61039;BME280;46919;45.816;3.104;2022-08-21T04:02:28;97942.09;;;14.76;100.00
61039;BME280;46919;45.816;3.104;2022-08-21T04:04:53;97949.09;;;14.72;100.00
61039;BME280;46919;45.816;3.104;2022-08-21T04:07:19;97952.31;;;14.68;100.00
61039;BME280;46919;45.816;3.104;2022-08-21T04:09:44;97952.31;;;14.68;100.00
61039;BME280;46919;45.816;3.104;2022-08-21T04:12:09;97959.84;;;14.61;100.00
61039;BME280;46919;45.816;3.104;2022-08-21T04:14:35;97961.63;;;14.56;100.00
61039;BME280;46919;45.816;3.104;2022-08-21T04:17:00;97955.59;;;14.54;100.00
61039;BME280;46919;45.816;3.104;2022-08-21T04:19:26;97956.78;;;14.58;100.00
61039;BME280;46919;45.816;3.104;2022-08-21T04:21:51;97954.31;;;14.56;100.00
61039;BME280;46919;45.816;3.104;2022-08-21T04:24:17;97958.78;;;14.62;100.00
61039;BME280;46919;45.816;3.104;2022-08-21T04:26:42;97974.50;;;14.60;100.00
61039;BME280;46919;45.816;3.104;2022-08-21T04:29:07;97971.69;;;14.55;100.00
61039;BME280;46919;45.816;3.104;2022-08-21T04:31:34;97973.84;;;14.53;100.00
61039;BME280;46919;45.816;3.104;2022-08-21T04:34:02;97974.81;;;14.47;100.00
61039;BME280;46919;45.816;3.104;2022-08-21T04:36:27;97976.72;;;14.46;100.00
61039;BME280;46919;45.816;3.104;2022-08-21T04:38:52;97986.94;;;14.39;100.00
61039;BME280;46919;45.816;3.104;2022-08-21T04:41:18;97991.69;;;14.32;100.00
61039;BME280;46919;45.816;3.104;2022-08-21T04:43:43;97988.47;;;14.35;100.00
61039;BME280;46919;45.816;3.104;2022-08-21T04:46:09;97987.84;;;14.45;100.00
61039;BME280;46919;45.816;3.104;2022-08-21T04:48:34;97983.97;;;14.75;100.00
61039;BME280;46919;45.816;3.104;2022-08-21T04:51:07;97986.47;;;14.98;100.00
61039;BME280;46919;45.816;3.104;2022-08-21T04:53:43;97994.03;;;14.74;100.00
61039;BME280;46919;45.816;3.104;2022-08-21T04:56:12;97987.34;;;14.48;100.00
61039;BME280;46919;45.816;3.104;2022-08-21T04:58:38;97993.91;;;14.35;100.00
61039;BME280;46919;45.816;3.104;2022-08-21T05:01:06;97991.94;;;14.30;100.00
61039;BME280;46919;45.816;3.104;2022-08-21T05:03:34;97989.22;;;14.30;100.00
61039;BME280;46919;45.816;3.104;2022-08-21T05:06:05;97985.84;;;14.23;100.00
61039;BME280;46919;45.816;3.104;2022-08-21T05:08:32;97992.53;;;14.16;100.00
61039;BME280;46919;45.816;3.104;2022-08-21T05:10:59;97987.09;;;14.16;100.00
61039;BME280;46919;45.816;3.104;2022-08-21T05:13:24;97982.47;;;14.16;100.00
61039;BME280;46919;45.816;3.104;2022-08-21T05:15:50;97992.28;;;14.17;100.00
61039;BME280;46919;45.816;3.104;2022-08-21T05:18:15;97988.38;;;14.13;100.00
61039;BME280;46919;45.816;3.104;2022-08-21T05:20:41;97981.56;;;14.10;100.00
61039;BME280;46919;45.816;3.104;2022-08-21T05:23:09;97988.91;;;14.10;100.00
61039;BME280;46919;45.816;3.104;2022-08-21T05:25:35;97986.75;;;14.12;100.00
61039;BME280;46919;45.816;3.104;2022-08-21T05:28:00;97986.75;;;14.12;100.00
61039;BME280;46919;45.816;3.104;2022-08-21T05:30:26;97975.41;;;14.15;100.00
61039;BME280;46919;45.816;3.104;2022-08-21T05:33:00;97983.88;;;14.19;100.00
61039;BME280;46919;45.816;3.104;2022-08-21T05:35:27;97978.19;;;14.20;100.00
61039;BME280;46919;45.816;3.104;2022-08-21T05:37:52;97979.44;;;14.29;100.00
61039;BME280;46919;45.816;3.104;2022-08-21T05:40:18;97980.69;;;14.39;100.00
61039;BME280;46919;45.816;3.104;2022-08-21T05:42:43;97971.44;;;14.40;100.00
61039;BME280;46919;45.816;3.104;2022-08-21T05:45:09;97966.00;;;14.40;100.00
61039;BME280;46919;45.816;3.104;2022-08-21T05:47:35;97971.78;;;14.43;100.00
61039;BME280;46919;45.816;3.104;2022-08-21T05:50:00;97961.22;;;14.47;100.00
61039;BME280;46919;45.816;3.104;2022-08-21T05:52:26;97969.06;;;14.60;100.00
61039;BME280;46919;45.816;3.104;2022-08-21T05:54:51;97968.63;;;14.68;100.00
61039;BME280;46919;45.816;3.104;2022-08-21T05:57:19;97975.72;;;14.70;100.00
61039;BME280;46919;45.816;3.104;2022-08-21T05:59:44;97976.06;;;14.73;100.00
61039;BME280;46919;45.816;3.104;2022-08-21T06:02:10;97984.13;;;14.85;100.00
61039;BME280;46919;45.816;3.104;2022-08-21T06:04:38;97979.41;;;14.97;100.00
61039;BME280;46919;45.816;3.104;2022-08-21T06:07:03;97986.13;;;15.12;100.00
61039;BME280;46919;45.816;3.104;2022-08-21T06:09:29;97984.69;;;15.26;100.00
61039;BME280;46919;45.816;3.104;2022-08-21T06:11:54;97989.22;;;15.43;100.00
61039;BME280;46919;45.816;3.104;2022-08-21T06:14:20;98001.19;;;15.64;100.00
61039;BME280;46919;45.816;3.104;2022-08-21T06:16:45;97995.72;;;15.86;100.00
61039;BME280;46919;45.816;3.104;2022-08-21T06:19:11;97992.19;;;16.12;100.00
61039;BME280;46919;45.816;3.104;2022-08-21T06:21:37;97991.00;;;16.30;100.00
61039;BME280;46919;45.816;3.104;2022-08-21T06:24:03;97998.53;;;16.56;99.50
61039;BME280;46919;45.816;3.104;2022-08-21T06:26:30;98002.81;;;16.79;98.93
61039;BME280;46919;45.816;3.104;2022-08-21T06:28:56;97994.47;;;16.91;99.23
61039;BME280;46919;45.816;3.104;2022-08-21T06:31:25;97997.25;;;17.01;99.14
61039;BME280;46919;45.816;3.104;2022-08-21T06:33:51;97990.75;;;17.12;99.20
61039;BME280;46919;45.816;3.104;2022-08-21T06:36:17;97991.13;;;17.31;98.97
61039;BME280;46919;45.816;3.104;2022-08-21T06:38:43;97987.88;;;17.39;98.14
61039;BME280;46919;45.816;3.104;2022-08-21T06:41:10;97988.72;;;17.40;97.54
61039;BME280;46919;45.816;3.104;2022-08-21T06:43:35;97982.75;;;17.53;97.04
61039;BME280;46919;45.816;3.104;2022-08-21T06:46:01;97985.81;;;17.62;96.88
61039;BME280;46919;45.816;3.104;2022-08-21T06:48:26;97990.47;;;17.67;96.80
61039;BME280;46919;45.816;3.104;2022-08-21T06:50:52;97986.34;;;17.69;96.11
61039;BME280;46919;45.816;3.104;2022-08-21T06:53:19;97999.50;;;17.72;94.97
61039;BME280;46919;45.816;3.104;2022-08-21T06:55:46;97995.94;;;17.72;94.85
61039;BME280;46919;45.816;3.104;2022-08-21T06:58:13;98001.16;;;17.73;94.67
61039;BME280;46919;45.816;3.104;2022-08-21T07:00:41;97997.56;;;17.68;93.99
61039;BME280;46919;45.816;3.104;2022-08-21T07:03:06;97997.56;;;17.68;93.26
61039;BME280;46919;45.816;3.104;2022-08-21T07:05:32;97993.22;;;17.67;92.89
61039;BME280;46919;45.816;3.104;2022-08-21T07:07:58;97998.38;;;17.68;93.00
61039;BME280;46919;45.816;3.104;2022-08-21T07:10:25;97998.16;;;17.80;92.50
61039;BME280;46919;45.816;3.104;2022-08-21T07:12:52;98002.53;;;17.86;91.49
61039;BME280;46919;45.816;3.104;2022-08-21T07:15:19;97992.72;;;17.90;91.21
61039;BME280;46919;45.816;3.104;2022-08-21T07:17:44;97987.56;;;17.94;90.88
61039;BME280;46919;45.816;3.104;2022-08-21T07:20:10;97976.91;;;17.98;90.97
61039;BME280;46919;45.816;3.104;2022-08-21T07:22:36;97981.28;;;18.04;90.93
61039;BME280;46919;45.816;3.104;2022-08-21T07:25:04;97988.41;;;18.20;89.32
61039;BME280;46919;45.816;3.104;2022-08-21T07:27:29;97992.25;;;18.24;87.94
61039;BME280;46919;45.816;3.104;2022-08-21T07:29:55;97993.34;;;18.28;86.84
61039;BME280;46919;45.816;3.104;2022-08-21T07:32:21;97999.63;;;18.39;86.27
61039;BME280;46919;45.816;3.104;2022-08-21T07:34:46;98000.72;;;18.54;85.98
61039;BME280;46919;45.816;3.104;2022-08-21T07:37:12;98008.13;;;18.69;85.84
61039;BME280;46919;45.816;3.104;2022-08-21T07:39:37;98003.19;;;18.71;85.10
61039;BME280;46919;45.816;3.104;2022-08-21T07:42:03;98005.63;;;18.82;85.05
61039;BME280;46919;45.816;3.104;2022-08-21T07:44:28;98005.94;;;18.91;83.76
61039;BME280;46919;45.816;3.104;2022-08-21T07:46:54;98002.13;;;18.92;83.49
61039;BME280;46919;45.816;3.104;2022-08-21T07:49:19;97988.91;;;19.05;83.06
61039;BME280;46919;45.816;3.104;2022-08-21T07:51:44;97984.00;;;19.07;82.26
61039;BME280;46919;45.816;3.104;2022-08-21T07:54:10;97980.13;;;19.18;81.49
61039;BME280;46919;45.816;3.104;2022-08-21T07:56:36;97979.00;;;19.19;80.17
61039;BME280;46919;45.816;3.104;2022-08-21T07:59:01;97971.09;;;19.17;80.60
61039;BME280;46919;45.816;3.104;2022-08-21T08:01:28;97976.53;;;19.28;80.57
61039;BME280;46919;45.816;3.104;2022-08-21T08:03:54;97967.44;;;19.37;80.30
61039;BME280;46919;45.816;3.104;2022-08-21T08:06:20;97980.03;;;19.44;80.84
61039;BME280;46919;45.816;3.104;2022-08-21T08:08:45;97982.78;;;19.44;80.75
61039;BME280;46919;45.816;3.104;2022-08-21T08:11:12;97977.25;;;19.54;79.86
61039;BME280;46919;45.816;3.104;2022-08-21T08:13:42;97977.16;;;19.69;78.67
61039;BME280;46919;45.816;3.104;2022-08-21T08:16:08;97983.47;;;19.75;78.77
61039;BME280;46919;45.816;3.104;2022-08-21T08:18:34;97986.16;;;19.85;78.37
61039;BME280;46919;45.816;3.104;2022-08-21T08:20:59;97985.59;;;19.88;77.72
61039;BME280;46919;45.816;3.104;2022-08-21T08:23:25;97978.97;;;19.95;77.26
61039;BME280;46919;45.816;3.104;2022-08-21T08:25:51;97988.41;;;20.23;76.75
61039;BME280;46919;45.816;3.104;2022-08-21T08:28:16;97977.09;;;20.30;76.27
61039;BME280;46919;45.816;3.104;2022-08-21T08:30:42;97976.75;;;20.36;75.38
61039;BME280;46919;45.816;3.104;2022-08-21T08:33:08;97965.47;;;20.43;74.31
61039;BME280;46919;45.816;3.104;2022-08-21T08:35:34;97965.22;;;20.39;73.05
61039;BME280;46919;45.816;3.104;2022-08-21T08:37:59;97969.09;;;20.38;71.84
61039;BME280;46919;45.816;3.104;2022-08-21T08:43:01;97963.38;;;20.64;72.07
61039;BME280;46919;45.816;3.104;2022-08-21T08:45:27;97958.63;;;20.75;71.64
61039;BME280;46919;45.816;3.104;2022-08-21T08:48:03;97962.47;;;20.74;71.17
61039;BME280;46919;45.816;3.104;2022-08-21T08:53:05;97953.38;;;21.03;69.93
61039;BME280;46919;45.816;3.104;2022-08-21T08:55:38;97951.75;;;21.26;69.02
61039;BME280;46919;45.816;3.104;2022-08-21T08:58:04;97955.16;;;21.17;69.06
61039;BME280;46919;45.816;3.104;2022-08-21T09:00:31;97951.84;;;21.15;68.88
61039;BME280;46919;45.816;3.104;2022-08-21T09:02:57;97952.09;;;20.95;69.25
61039;BME280;46919;45.816;3.104;2022-08-21T09:05:40;97961.25;;;20.85;69.74
61039;BME280;46919;45.816;3.104;2022-08-21T09:11:02;97949.97;;;20.87;69.36
61039;BME280;46919;45.816;3.104;2022-08-21T09:21:50;97958.41;;;20.95;69.28
61039;BME280;46919;45.816;3.104;2022-08-21T09:27:13;97960.41;;;21.38;67.95
61039;BME280;46919;45.816;3.104;2022-08-21T09:29:42;97962.84;;;21.64;66.94
61039;BME280;46919;45.816;3.104;2022-08-21T09:32:18;97960.84;;;21.88;66.05
61039;BME280;46919;45.816;3.104;2022-08-21T09:35:05;97962.13;;;21.77;64.75
61039;BME280;46919;45.816;3.104;2022-08-21T09:37:33;97958.31;;;21.54;66.15
61039;BME280;46919;45.816;3.104;2022-08-21T09:40:00;97952.09;;;21.43;64.94
61039;BME280;46919;45.816;3.104;2022-08-21T09:42:29;97962.50;;;21.46;63.93
61039;BME280;46919;45.816;3.104;2022-08-21T09:45:14;97967.53;;;21.39;65.60
61039;BME280;46919;45.816;3.104;2022-08-21T09:47:42;97966.19;;;21.37;64.81
61039;BME280;46919;45.816;3.104;2022-08-21T09:50:18;97966.03;;;21.52;64.42
61039;BME280;46919;45.816;3.104;2022-08-21T09:52:51;97959.13;;;21.55;65.59
61039;BME280;46919;45.816;3.104;2022-08-21T09:55:31;97958.25;;;21.59;64.99
61039;BME280;46919;45.816;3.104;2022-08-21T09:58:16;97952.97;;;21.63;64.11
61039;BME280;46919;45.816;3.104;2022-08-21T10:00:42;97952.16;;;21.81;63.13
61039;BME280;46919;45.816;3.104;2022-08-21T10:03:15;97945.91;;;21.95;62.78
61039;BME280;46919;45.816;3.104;2022-08-21T10:05:51;97945.69;;;22.10;61.97
61039;BME280;46919;45.816;3.104;2022-08-21T10:08:19;97939.41;;;22.23;61.15
61039;BME280;46919;45.816;3.104;2022-08-21T10:10:45;97939.50;;;22.37;60.64
61039;BME280;46919;45.816;3.104;2022-08-21T10:18:42;97927.56;;;22.42;59.63
61039;BME280;46919;45.816;3.104;2022-08-21T10:21:23;97918.56;;;22.69;58.57
61039;BME280;46919;45.816;3.104;2022-08-21T10:32:04;97915.22;;;23.56;55.96
61039;BME280;46919;45.816;3.104;2022-08-21T10:34:48;97925.06;;;23.98;54.44
61039;BME280;46919;45.816;3.104;2022-08-21T10:37:40;97916.03;;;24.07;53.80
61039;BME280;46919;45.816;3.104;2022-08-21T10:40:29;97916.13;;;24.47;55.40
61039;BME280;46919;45.816;3.104;2022-08-21T10:48:35;97914.75;;;24.35;55.26
61039;BME280;46919;45.816;3.104;2022-08-21T10:51:27;97894.41;;;24.31;53.06
61039;BME280;46919;45.816;3.104;2022-08-21T10:55:16;97894.56;;;24.26;52.32
61039;BME280;46919;45.816;3.104;2022-08-21T10:57:23;97898.22;;;24.13;52.22
61039;BME280;46919;45.816;3.104;2022-08-21T10:59:57;97888.34;;;24.20;52.89
61039;BME280;46919;45.816;3.104;2022-08-21T11:02:33;97900.38;;;24.24;53.30
61039;BME280;46919;45.816;3.104;2022-08-21T11:05:11;97885.06;;;24.41;53.84
61039;BME280;46919;45.816;3.104;2022-08-21T11:10:27;97889.09;;;24.12;52.66
61039;BME280;46919;45.816;3.104;2022-08-21T11:13:05;97887.97;;;23.77;51.89
61039;BME280;46919;45.816;3.104;2022-08-21T11:18:18;97881.03;;;23.43;52.89
61039;BME280;46919;45.816;3.104;2022-08-21T11:25:49;97886.44;;;23.34;53.80
61039;BME280;46919;45.816;3.104;2022-08-21T11:28:28;97903.41;;;23.27;52.90
61039;BME280;46919;45.816;3.104;2022-08-21T11:31:28;97891.56;;;23.27;52.43
61039;BME280;46919;45.816;3.104;2022-08-21T11:34:17;97894.22;;;23.32;53.63
61039;BME280;46919;45.816;3.104;2022-08-21T11:39:26;97892.47;;;23.73;52.65
61039;BME280;46919;45.816;3.104;2022-08-21T11:50:20;97883.09;;;24.64;50.44
61039;BME280;46919;45.816;3.104;2022-08-21T11:52:59;97875.63;;;25.05;51.15
61039;BME280;46919;45.816;3.104;2022-08-21T11:58:17;97865.53;;;25.09;49.36
61039;BME280;46919;45.816;3.104;2022-08-21T12:00:50;97870.25;;;25.00;49.91
61039;BME280;46919;45.816;3.104;2022-08-21T12:06:27;97874.53;;;25.14;50.14
61039;BME280;46919;45.816;3.104;2022-08-21T12:09:28;97868.81;;;25.11;49.92
61039;BME280;46919;45.816;3.104;2022-08-21T12:11:49;97867.66;;;25.03;49.49
61039;BME280;46919;45.816;3.104;2022-08-21T12:14:18;97862.59;;;24.97;49.89
61039;BME280;46919;45.816;3.104;2022-08-21T12:16:48;97866.59;;;24.82;50.14
61039;BME280;46919;45.816;3.104;2022-08-21T12:21:52;97861.91;;;24.28;50.13
61039;BME280;46919;45.816;3.104;2022-08-21T12:24:40;97859.25;;;24.14;50.87
61039;BME280;46919;45.816;3.104;2022-08-21T12:29:55;97865.44;;;24.42;50.51
61039;BME280;46919;45.816;3.104;2022-08-21T12:32:28;97858.19;;;24.55;50.75
61039;BME280;46919;45.816;3.104;2022-08-21T12:34:57;97852.78;;;24.82;50.25
61039;BME280;46919;45.816;3.104;2022-08-21T12:37:45;97844.63;;;25.25;48.56
61039;BME280;46919;45.816;3.104;2022-08-21T12:40:30;97851.19;;;25.38;47.30
61039;BME280;46919;45.816;3.104;2022-08-21T12:42:59;97853.78;;;25.61;49.01
61039;BME280;46919;45.816;3.104;2022-08-21T12:45:43;97849.09;;;25.70;48.59
61039;BME280;46919;45.816;3.104;2022-08-21T12:50:58;97843.84;;;25.34;47.46
61039;BME280;46919;45.816;3.104;2022-08-21T12:56:15;97841.28;;;24.97;48.41
61039;BME280;46919;45.816;3.104;2022-08-21T12:58:46;97832.47;;;24.77;48.73
61039;BME280;46919;45.816;3.104;2022-08-21T13:01:33;97834.13;;;24.56;48.40
61039;BME280;46919;45.816;3.104;2022-08-21T13:04:07;97832.84;;;24.31;48.82
61039;BME280;46919;45.816;3.104;2022-08-21T13:06:45;97835.06;;;24.20;48.84
61039;BME280;46919;45.816;3.104;2022-08-21T13:09:15;97831.81;;;24.18;49.07
61039;BME280;46919;45.816;3.104;2022-08-21T13:11:43;97828.91;;;24.23;48.92
61039;BME280;46919;45.816;3.104;2022-08-21T13:14:48;97825.50;;;24.26;49.52
61039;BME280;46919;45.816;3.104;2022-08-21T13:17:21;97820.41;;;24.42;49.02
61039;BME280;46919;45.816;3.104;2022-08-21T13:22:26;97814.59;;;24.92;48.32
61039;BME280;46919;45.816;3.104;2022-08-21T13:24:53;97808.69;;;25.34;47.36
61039;BME280;46919;45.816;3.104;2022-08-21T13:27:29;97808.22;;;26.02;47.84
61039;BME280;46919;45.816;3.104;2022-08-21T13:32:35;97805.59;;;27.21;44.23
61039;BME280;46919;45.816;3.104;2022-08-21T13:35:11;97807.22;;;27.52;44.21
61039;BME280;46919;45.816;3.104;2022-08-21T13:37:39;97810.94;;;27.56;43.39
61039;BME280;46919;45.816;3.104;2022-08-21T13:40:07;97811.28;;;27.34;43.92
61039;BME280;46919;45.816;3.104;2022-08-21T13:42:35;97810.41;;;27.42;44.04
61039;BME280;46919;45.816;3.104;2022-08-21T13:45:00;97798.88;;;27.73;43.72
61039;BME280;46919;45.816;3.104;2022-08-21T13:47:25;97794.28;;;27.77;43.26
61039;BME280;46919;45.816;3.104;2022-08-21T13:49:52;97800.03;;;28.27;42.82
61039;BME280;46919;45.816;3.104;2022-08-21T13:52:24;97786.53;;;28.16;41.02
61039;BME280;46919;45.816;3.104;2022-08-21T13:55:08;97798.25;;;27.68;42.13
61039;BME280;46919;45.816;3.104;2022-08-21T13:57:35;97794.88;;;27.83;41.56
61039;BME280;46919;45.816;3.104;2022-08-21T14:02:41;97804.41;;;28.15;42.66
61039;BME280;46919;45.816;3.104;2022-08-21T14:05:16;97794.53;;;28.18;42.29
61039;BME280;46919;45.816;3.104;2022-08-21T14:07:43;97797.63;;;27.83;41.43
61039;BME280;46919;45.816;3.104;2022-08-21T14:10:18;97790.38;;;27.57;40.53
61039;BME280;46919;45.816;3.104;2022-08-21T14:12:48;97777.59;;;27.44;42.09
61039;BME280;46919;45.816;3.104;2022-08-21T14:15:18;97788.72;;;27.98;41.58
61039;BME280;46919;45.816;3.104;2022-08-21T14:17:47;97798.19;;;27.76;40.99
61039;BME280;46919;45.816;3.104;2022-08-21T14:20:29;97794.91;;;27.41;41.56
61039;BME280;46919;45.816;3.104;2022-08-21T14:22:56;97790.56;;;27.31;42.29
61039;BME280;46919;45.816;3.104;2022-08-21T14:27:53;97775.88;;;27.31;41.58
61039;BME280;46919;45.816;3.104;2022-08-21T14:30:31;97770.94;;;27.57;41.45
61039;BME280;46919;45.816;3.104;2022-08-21T14:32:58;97773.31;;;27.80;41.70
61039;BME280;46919;45.816;3.104;2022-08-21T14:35:24;97776.91;;;28.01;41.15